createdAt,value
2022-10-11T09:00:40.877Z,29.40
2022-10-11T09:05:53.078Z,20.00
2022-10-11T09:11:00.794Z,24.10
2022-10-11T09:16:11.611Z,25.60
2022-10-11T09:21:33.824Z,13.20
2022-10-11T09:26:54.345Z,27.40
2022-10-11T09:31:57.134Z,24.00
2022-10-11T09:37:07.391Z,14.00
2022-10-11T09:42:10.029Z,14.30
2022-10-11T09:47:14.675Z,14.10
2022-10-11T09:52:21.473Z,16.30
2022-10-11T09:57:27.360Z,16.60
2022-10-11T10:02:29.714Z,11.40
2022-10-11T10:07:32.092Z,13.20
2022-10-11T10:12:33.555Z,49.70
2022-10-11T10:17:36.000Z,21.80
2022-10-11T10:22:37.492Z,19.10
2022-10-11T10:27:38.984Z,11.40
2022-10-11T10:32:48.552Z,39.80
2022-10-11T10:37:53.636Z,10.80
2022-10-11T10:42:55.055Z,10.90
2022-10-11T10:47:59.574Z,17.10
2022-10-11T10:53:00.976Z,9.10
2022-10-11T10:58:02.443Z,14.90
2022-10-11T11:03:06.525Z,11.70
2022-10-11T11:08:15.109Z,10.50
2022-10-11T11:13:25.536Z,7.00
2022-10-11T11:18:47.300Z,15.00
2022-10-11T11:23:53.722Z,5.20
2022-10-11T11:28:55.316Z,7.80
2022-10-11T11:34:09.154Z,4.40
2022-10-11T11:39:14.142Z,6.10
2022-10-11T11:44:26.468Z,12.00
2022-10-11T11:49:35.707Z,11.50
2022-10-11T11:55:03.992Z,13.70
2022-10-11T12:00:07.732Z,13.10
2022-10-11T12:05:20.160Z,9.40
2022-10-11T12:10:29.910Z,10.30
2022-10-11T12:15:32.103Z,10.10
2022-10-11T12:20:40.837Z,5.40
2022-10-11T12:25:43.913Z,5.20
2022-10-11T12:30:48.270Z,8.40
2022-10-11T12:35:55.440Z,8.00
2022-10-11T12:40:57.136Z,3.80
2022-10-11T12:46:19.218Z,8.10
2022-10-11T12:51:36.716Z,6.20
2022-10-11T12:56:47.735Z,7.40
2022-10-11T13:06:55.191Z,12.20
2022-10-11T13:11:59.869Z,7.00
2022-10-11T13:17:14.785Z,5.80
2022-10-11T13:22:20.955Z,4.50
2022-10-11T13:27:24.000Z,6.60
2022-10-11T13:32:27.352Z,12.70
2022-10-11T13:37:29.859Z,6.90
2022-10-11T13:42:32.210Z,9.40
2022-10-11T13:47:35.115Z,3.00
2022-10-11T13:52:47.360Z,4.10
2022-10-11T13:57:49.612Z,5.50
2022-10-11T14:02:53.924Z,6.00
2022-10-11T14:07:56.276Z,4.00
2022-10-11T14:12:59.615Z,6.40
2022-10-11T14:18:02.492Z,4.40
2022-10-11T14:23:04.406Z,5.20
2022-10-11T14:28:10.872Z,4.60
2022-10-11T14:33:12.354Z,5.40
2022-10-11T14:38:14.072Z,9.00
2022-10-11T14:43:15.473Z,4.40
2022-10-11T14:48:26.634Z,7.00
2022-10-11T14:53:42.026Z,7.70
2022-10-11T14:58:43.542Z,7.20
2022-10-11T15:03:45.035Z,6.80
2022-10-11T15:08:46.523Z,16.20
2022-10-11T15:13:48.717Z,6.60
2022-10-11T15:18:51.788Z,4.80
2022-10-11T15:23:54.187Z,7.40
2022-10-11T15:28:56.693Z,4.50
2022-10-11T15:33:59.628Z,4.80
2022-10-11T15:39:01.723Z,5.30
2022-10-11T15:44:03.204Z,3.70
2022-10-11T15:49:10.396Z,3.70
2022-10-11T15:54:11.868Z,8.50
2022-10-11T15:59:13.308Z,20.20
2022-10-11T16:04:14.721Z,25.40
2022-10-11T16:09:16.268Z,57.20
2022-10-11T16:14:17.703Z,20.90
2022-10-11T16:19:19.118Z,20.60
2022-10-11T16:24:20.605Z,25.80
2022-10-11T16:29:22.319Z,21.20
2022-10-11T16:34:23.779Z,24.50
2022-10-11T16:39:25.208Z,103.20
2022-10-11T16:44:27.847Z,103.20
2022-10-11T16:49:29.368Z,304.10
2022-10-11T16:54:31.507Z,242.80
2022-10-11T16:59:33.243Z,144.20
2022-10-11T17:04:34.723Z,88.60
2022-10-11T17:09:39.191Z,57.00
2022-10-11T17:14:44.456Z,59.60
2022-10-11T17:19:47.584Z,60.40
2022-10-11T17:24:49.007Z,58.10
2022-10-11T17:34:51.851Z,114.00
2022-10-11T17:44:55.322Z,187.60
2022-10-11T17:54:58.146Z,147.10
2022-10-11T18:05:01.056Z,115.60
2022-10-11T18:15:03.973Z,112.10
2022-10-11T18:20:05.620Z,111.60
2022-10-11T18:25:07.258Z,99.90
2022-10-11T18:30:09.411Z,97.50
2022-10-11T18:35:10.952Z,100.70
2022-10-11T18:45:13.968Z,97.10
2022-10-11T18:55:16.872Z,93.90
2022-10-11T19:05:41.635Z,73.10
2022-10-11T19:15:44.594Z,79.90
2022-10-11T19:25:47.651Z,89.30
2022-10-11T19:30:49.126Z,86.60
2022-10-11T19:40:52.223Z,77.20
2022-10-11T19:46:04.244Z,102.00
2022-10-11T19:51:09.898Z,158.70
2022-10-11T19:56:18.135Z,137.20
2022-10-11T20:01:23.057Z,137.20
2022-10-11T20:06:25.818Z,123.80
2022-10-11T20:11:28.384Z,133.80
2022-10-11T20:16:29.990Z,129.20
2022-10-11T20:21:33.047Z,131.60
2022-10-11T20:26:35.025Z,122.10
2022-10-11T20:31:41.685Z,119.80
2022-10-11T20:36:48.208Z,104.00
2022-10-11T20:41:50.710Z,115.20
2022-10-11T20:46:52.157Z,111.60
2022-10-11T20:56:55.022Z,95.10
2022-10-11T21:01:56.554Z,106.60
2022-10-11T21:12:00.541Z,108.20
2022-10-11T21:17:03.965Z,99.60
2022-10-11T21:22:06.151Z,107.80
2022-10-11T21:27:07.645Z,136.50
2022-10-11T21:32:13.541Z,107.70
2022-10-11T21:37:17.588Z,104.00
2022-10-11T21:42:19.038Z,116.80
2022-10-11T21:47:20.481Z,108.80
2022-10-11T21:57:23.673Z,133.10
2022-10-11T22:02:25.273Z,122.30
2022-10-11T22:07:26.976Z,127.10
2022-10-11T22:12:28.518Z,147.10
2022-10-11T22:17:29.965Z,170.80
2022-10-11T22:22:31.470Z,152.00
2022-10-11T22:27:32.885Z,150.00
2022-10-11T22:32:34.516Z,169.00
2022-10-11T22:37:36.427Z,167.90
2022-10-11T22:42:38.060Z,159.30
2022-10-11T22:47:39.496Z,178.80
2022-10-11T22:52:40.904Z,164.30
2022-10-11T22:57:42.346Z,160.00
2022-10-11T23:02:43.805Z,138.70
2022-10-11T23:12:52.932Z,155.60
2022-10-11T23:17:54.466Z,141.10
2022-10-11T23:22:55.984Z,170.20
2022-10-11T23:27:59.369Z,206.40
2022-10-11T23:33:00.816Z,267.50
2022-10-11T23:38:02.283Z,181.30
2022-10-11T23:43:03.756Z,150.30
2022-10-11T23:48:05.388Z,158.70
2022-10-11T23:58:08.271Z,204.10
